메인 페이지
METAR-TAF:

METAR-TAF

공항 :

콜럼버스, 조지아, 미국

위도: 32-30-58N, 경도: 084-56-32W, 고도: 121m

현재 날씨관측

예보는 32분 전, 12:51시(UTC)에 발표되었습니다.
3kt
온도 17°C
습도 82%
기압 1020 hPa
시정: 16.1km
맑음

METAR: KCSG 061251Z 08003KT 10SM CLR 17/14 A3013 RMK AO2 SLP198 T01720139

시각: 09:23 (13:23 UTC)

예보

예보는 2 시간 3분 전, 11:20시(UTC)에 발표되었습니다.
예보 대상 시간: 06일 12시부터 07일 12시까지 (UTC)
여러 방향의 바람 3kt
시정: 10km
고도 25000ft 상공 구름 조금
06일 1500시부터 (UTC)
남서5kt
시정: 10km
고도 5000ft 상공 구름 보통
고도 25000ft 상공 구름 보통
07일 0100시부터 (UTC)
여러 방향의 바람 3kt
시정: 10km
고도 6000ft 상공 구름 보통
고도 15000ft 상공 구름 보통
고도 25000ft 상공 구름 많음
07일 0900시부터 (UTC)
여러 방향의 바람 3kt
시정: 10km
고도 4000ft 상공 구름 보통
고도 15000ft 상공 구름 많음

TAF: KCSG 061120Z 0612/0712 VRB03KT P6SM FEW250 FM061500 23005KT P6SM SCT050 SCT250 FM070100 VRB03KT P6SM SCT060 SCT150 BKN250 FM070900 VRB03KT P6SM SCT040 BKN150

4,000개 이상의 공항 관측 자료 및 예보 (METAR 및 TAF 보고).

지도상에서 검색 가능한 기상관측소가 노란 점과 빨간 점으로 표시되어 있습니다.

기상관측소 명을 보려면 표시 위로 마우스를 이동하세요.

날씨 관측과 예보를 보려면 클릭하세요.

지도 변경 : 확대하려면 엑스 표시가 있는 녹색 버튼, 축소하려면 빼기 표시가 있는 녹색 버튼, 다음 페이지의 지도를 보려면 녹색 화살표를 클릭하세요.


METAR-TAF: